CheckWX is a tool to help pilots better visualize weather data.  It is not intended as a substitute for an official pre-flight weather briefing.

19:14:39 UTC

UIII METAR
Irkutsk Airport
Irkutsk, Russian Federation
Current

15 mins ago

UIII 171900Z 13002MPS 100V170 CAVOK 03/M01 Q1004 R12/60D NOSIG RMK QFE711/0949
Observed
Oct-17 @ 19:00 UTC
Wind
  • 130° at 4 KTS
Visibility
10,000+ meters
Flight Rules
VFR
Cloud Levels
  • Clear skies
Temperature
C / 37°F
Dewpoint
-1°C / 30°F
Humidity
75%
Altimeter
29.65" Hg
Pressure
1003.92 hPa
Previous

45 mins ago

UIII 171830Z 09003MPS CAVOK M01/M05 Q1005 R12/60D NOSIG RMK QFE712/0949
Observed
Oct-17 @ 18:30 UTC
Wind
  • 090° at 6 KTS
Visibility
10,000+ meters
Flight Rules
VFR
Cloud Levels
  • Clear skies
Temperature
-1°C / 30°F
Dewpoint
-5°C / 23°F
Humidity
75%
Altimeter
29.68" Hg
Pressure
1004.92 hPa
Previous

45 mins ago

UIII 171830Z 09003MPS CAVOK M01/M05 Q1005 R12/CLRD60 NOSIG RMK QFE712/0949
Observed
Oct-17 @ 18:30 UTC
Wind
  • 090° at 6 KTS
Visibility
10,000+ meters
Flight Rules
VFR
Cloud Levels
  • Clear skies
Temperature
-1°C / 30°F
Dewpoint
-5°C / 23°F
Humidity
75%
Altimeter
29.68" Hg
Pressure
1004.92 hPa